»·PEaware :: N224LW KBFI-KPDX

N224LW :: KBFI-KPDX

FLIGHT INFORMATION

Flight Status: Arrived
Operator: Privately registered:
United States
More flights under this callsign
Pilot: Rod T. (6553)
Aircraft: Unknown
(S22T)
More flights by this aircraft type
Origin: KBFI Boeing Field/King Co Intl
United States
Destination: KPDX Portland Intl
United States
More flights between these airports :: More routes between these airports
Route: +KENT8 ZIGED BTG
File this flight plan on PilotEdge
Remarks:
Altitude:
(Current/Filed)
9,000ft
Speed:
(Current/Filed)
180kts
Departed: 18-Dec-17 07:55 PM
Arrived: 18-Dec-17 08:44 PM
Distance/Time
Traveled:
117nm/0:49
Distance/Time
To Go:
Arrived

Flight Plot

Page will automatically refresh every two minutes.

Flight plan parsing failed; only flown route is shown


Map Options




Map Legend


Flown Route
Filed Route
Departure Airport
Arrival Airport
Navaid (VOR, NDB)
Fix

Horizontal Profiles

Position Reports

Time Latitude Longitude Heading Altitude Ground
Speed
18-Dec-17 19:48 47.527293 -122.296803 331 22ft 0kts
18-Dec-17 19:49 47.527293 -122.296803 331 22ft 0kts
18-Dec-17 19:50 47.527293 -122.296803 331 22ft 0kts
18-Dec-17 19:51 47.527293 -122.296803 331 22ft 0kts
18-Dec-17 19:52 47.527293 -122.296803 331 22ft 0kts
18-Dec-17 19:53 47.527293 -122.296803 331 22ft 0kts
18-Dec-17 19:54 47.527293 -122.296803 331 22ft 0kts
18-Dec-17 19:55 47.527293 -122.296803 331 22ft 0kts
18-Dec-17 19:56 47.531635 -122.300587 321 22ft 27kts
18-Dec-17 19:57 47.537903 -122.306440 328 22ft 18kts
18-Dec-17 19:58 47.538036 -122.306686 259 22ft 0kts
18-Dec-17 19:59 47.538036 -122.306686 259 22ft 0kts
18-Dec-17 20:00 47.538036 -122.306686 259 22ft 0kts
18-Dec-17 20:01 47.528308 -122.299604 150 318ft 96kts
18-Dec-17 20:02 47.502288 -122.280066 147 1502ft 113kts
18-Dec-17 20:03 47.474542 -122.255498 149 1959ft 139kts
18-Dec-17 20:04 47.440165 -122.226044 149 1955ft 144kts
18-Dec-17 20:05 47.410251 -122.200594 149 2371ft 130kts
18-Dec-17 20:06 47.380429 -122.177135 172 3769ft 124kts
18-Dec-17 20:07 47.346459 -122.173685 176 5122ft 125kts
18-Dec-17 20:08 47.309931 -122.175257 194 5962ft 154kts
18-Dec-17 20:09 47.264927 -122.187725 193 5956ft 170kts
18-Dec-17 20:10 47.226257 -122.197260 196 7546ft 130kts
18-Dec-17 20:11 47.190461 -122.205917 198 8804ft 132kts
18-Dec-17 20:12 47.149342 -122.217155 198 8956ft 164kts
18-Dec-17 20:13 47.103166 -122.229925 197 8954ft 171kts
18-Dec-17 20:14 47.056007 -122.242757 197 8953ft 173kts
18-Dec-17 20:15 47.008646 -122.255584 197 8953ft 173kts
18-Dec-17 20:16 46.961398 -122.268350 197 8953ft 173kts
18-Dec-17 20:17 46.914132 -122.281071 197 8980ft 172kts
18-Dec-17 20:18 46.867008 -122.293764 197 8982ft 173kts
18-Dec-17 20:19 46.819642 -122.306516 197 8982ft 173kts
18-Dec-17 20:20 46.772398 -122.319201 197 8981ft 173kts
18-Dec-17 20:21 46.724961 -122.331902 197 8981ft 173kts
18-Dec-17 20:22 46.677493 -122.344590 197 8981ft 173kts
18-Dec-17 20:23 46.630087 -122.357236 197 8981ft 173kts
18-Dec-17 20:24 46.582533 -122.369900 197 8981ft 173kts
18-Dec-17 20:25 46.535158 -122.382494 197 8981ft 173kts
18-Dec-17 20:26 46.487643 -122.395119 197 8981ft 173kts
18-Dec-17 20:27 46.440383 -122.407623 197 8980ft 174kts
18-Dec-17 20:28 46.392895 -122.420184 197 8972ft 174kts
18-Dec-17 20:29 46.345226 -122.432779 197 8953ft 174kts
18-Dec-17 20:30 46.297580 -122.445363 197 8953ft 173kts
18-Dec-17 20:31 46.250124 -122.457844 197 8953ft 173kts
18-Dec-17 20:32 46.202699 -122.470299 197 8953ft 173kts
18-Dec-17 20:33 46.155510 -122.482641 197 8970ft 172kts
18-Dec-17 20:34 46.108315 -122.494967 197 8971ft 172kts
18-Dec-17 20:35 46.061020 -122.507330 197 8971ft 173kts
18-Dec-17 20:36 46.011397 -122.520711 196 8333ft 190kts
18-Dec-17 20:37 45.959278 -122.534772 195 7520ft 191kts
18-Dec-17 20:38 45.907053 -122.548744 194 6702ft 191kts
18-Dec-17 20:39 45.871704 -122.599992 235 5765ft 189kts
18-Dec-17 20:40 45.841572 -122.662203 234 4806ft 189kts
18-Dec-17 20:41 45.816011 -122.715073 234 4041ft 188kts
18-Dec-17 20:42 45.786326 -122.776665 234 3177ft 188kts
18-Dec-17 20:43 45.742638 -122.803916 195 2972ft 168kts
18-Dec-17 20:44 45.700043 -122.793245 144 2974ft 172kts
18-Dec-17 20:45 45.663174 -122.752953 145 2953ft 150kts
18-Dec-17 20:46 45.638637 -122.708514 118 1881ft 130kts
18-Dec-17 20:47 45.622840 -122.667774 118 1203ft 112kts
18-Dec-17 20:48 45.608967 -122.631965 118 627ft 92kts
18-Dec-17 20:49 45.597348 -122.602271 113 138ft 79kts
18-Dec-17 20:50 45.589640 -122.582433 124 31ft 31kts

Navigation Log

Ident Type
Flight plan parsing failed, navigation log unavailable